createdAt,value
2022-12-23T00:01:49.166Z,63.50
2022-12-23T00:04:24.182Z,63.70
2022-12-23T00:06:59.090Z,65.10
2022-12-23T00:09:34.147Z,66.30
2022-12-23T00:12:27.304Z,65.50
2022-12-23T00:15:07.889Z,65.30
2022-12-23T00:17:45.242Z,65.70
2022-12-23T00:20:20.235Z,66.00
2022-12-23T00:23:07.090Z,65.20
2022-12-23T00:25:44.857Z,65.20
2022-12-23T00:28:23.389Z,65.30
2022-12-23T00:31:07.278Z,65.90
2022-12-23T00:33:45.078Z,66.70
2022-12-23T00:36:30.797Z,66.60
2022-12-23T00:39:24.097Z,67.40
2022-12-23T00:42:17.700Z,67.90
2022-12-23T00:44:52.589Z,68.40
2022-12-23T00:47:45.870Z,69.20
2022-12-23T00:50:20.742Z,69.10
2022-12-23T00:52:56.624Z,68.80
2022-12-23T00:55:31.573Z,68.70
2022-12-23T00:58:06.472Z,68.90
2022-12-23T01:01:00.608Z,69.40
2022-12-23T01:03:53.950Z,69.90
2022-12-23T01:06:28.827Z,69.20
2022-12-23T01:09:03.796Z,70.50
2022-12-23T01:11:39.166Z,70.90
2022-12-23T01:14:14.151Z,71.20
2022-12-23T01:16:49.104Z,71.60
2022-12-23T01:19:24.079Z,72.00
2022-12-23T01:21:58.945Z,72.80
2022-12-23T01:24:33.807Z,72.60
2022-12-23T01:27:08.808Z,72.20
2022-12-23T01:29:43.731Z,72.10
2022-12-23T01:32:18.748Z,71.90
2022-12-23T01:34:53.722Z,72.20
2022-12-23T01:37:28.564Z,71.60
2022-12-23T01:40:03.976Z,71.50
2022-12-23T01:42:44.554Z,71.70
2022-12-23T01:45:30.026Z,71.30
2022-12-23T01:48:26.815Z,70.70
2022-12-23T01:51:10.302Z,71.60
2022-12-23T01:53:50.587Z,71.60
2022-12-23T01:56:36.884Z,71.60
2022-12-23T01:59:37.837Z,71.50
2022-12-23T02:02:31.182Z,71.40
2022-12-23T02:05:07.227Z,71.50
2022-12-23T02:08:01.580Z,71.60
2022-12-23T02:11:22.981Z,71.40
2022-12-23T02:14:47.888Z,71.30
2022-12-23T02:17:39.589Z,71.20
2022-12-23T02:20:51.797Z,71.30
2022-12-23T02:24:13.615Z,71.30
2022-12-23T02:27:03.141Z,71.60
2022-12-23T02:30:11.904Z,72.00
2022-12-23T02:33:17.266Z,72.10
2022-12-23T02:36:07.350Z,72.50
2022-12-23T02:38:58.777Z,71.60
2022-12-23T02:41:48.941Z,72.10
2022-12-23T02:44:33.809Z,72.20
2022-12-23T02:47:19.465Z,72.50
2022-12-23T02:50:00.091Z,73.10
2022-12-23T02:52:37.741Z,73.40
2022-12-23T02:55:22.829Z,73.40
2022-12-23T02:58:00.861Z,73.80
2022-12-23T03:00:38.605Z,73.80
2022-12-23T03:03:13.617Z,74.10
2022-12-23T03:05:51.045Z,73.50
2022-12-23T03:08:32.498Z,73.70
2022-12-23T03:11:14.601Z,74.10
2022-12-23T03:14:19.754Z,74.10
2022-12-23T03:17:14.788Z,75.10
2022-12-23T03:20:48.313Z,77.10
2022-12-23T03:23:32.888Z,82.20
2022-12-23T03:26:27.998Z,82.60
2022-12-23T03:29:18.435Z,83.50
2022-12-23T03:31:58.355Z,83.90
2022-12-23T03:34:40.474Z,84.30
2022-12-23T03:37:19.000Z,85.40
2022-12-23T03:40:07.444Z,85.70
2022-12-23T03:42:45.303Z,85.90
2022-12-23T03:45:40.663Z,85.90
2022-12-23T03:48:28.058Z,86.10
2022-12-23T03:51:20.157Z,86.30
2022-12-23T03:54:10.358Z,86.40
2022-12-23T03:56:56.970Z,86.70
2022-12-23T03:59:39.628Z,86.50
2022-12-23T04:02:35.794Z,86.40
2022-12-23T04:05:36.237Z,86.80
2022-12-23T04:08:26.991Z,86.70
2022-12-23T04:11:03.025Z,86.60
2022-12-23T04:13:38.045Z,86.50
2022-12-23T04:16:13.062Z,86.10
2022-12-23T04:18:47.938Z,85.40
2022-12-23T04:21:22.828Z,85.40
2022-12-23T04:23:57.709Z,84.80
2022-12-23T04:26:32.637Z,84.30
2022-12-23T04:29:07.513Z,84.30
2022-12-23T04:31:42.465Z,84.00
2022-12-23T04:34:17.423Z,83.60
2022-12-23T04:36:52.433Z,83.30
2022-12-23T04:39:27.427Z,82.00
2022-12-23T04:42:02.361Z,82.30
2022-12-23T04:44:37.240Z,81.90
2022-12-23T04:47:12.137Z,81.40
2022-12-23T04:49:47.078Z,80.20
2022-12-23T04:52:22.385Z,79.60
2022-12-23T04:54:57.241Z,79.30
2022-12-23T04:57:32.085Z,78.80
2022-12-23T05:00:08.713Z,78.20
2022-12-23T05:02:44.568Z,77.50
2022-12-23T05:05:19.497Z,76.90
2022-12-23T05:08:04.742Z,76.80
2022-12-23T05:10:39.647Z,76.90
2022-12-23T05:13:14.559Z,76.90
2022-12-23T05:15:52.099Z,77.50
2022-12-23T05:18:27.231Z,77.40
2022-12-23T05:21:02.055Z,77.80
2022-12-23T05:23:37.185Z,78.20
2022-12-23T05:26:12.093Z,78.00
2022-12-23T05:28:47.406Z,77.20
2022-12-23T05:31:22.383Z,76.50
2022-12-23T05:34:02.278Z,76.30
2022-12-23T05:36:40.688Z,75.70
2022-12-23T05:39:15.641Z,74.10
2022-12-23T05:41:50.531Z,74.30
2022-12-23T05:44:25.384Z,73.80
2022-12-23T05:47:00.278Z,73.40
2022-12-23T05:49:35.140Z,72.90
2022-12-23T05:52:10.042Z,72.10
2022-12-23T05:54:44.950Z,71.30
2022-12-23T05:57:19.809Z,71.70
2022-12-23T05:59:54.676Z,71.50
2022-12-23T06:02:29.638Z,71.60
2022-12-23T06:05:05.185Z,69.60
2022-12-23T06:07:40.828Z,69.00
2022-12-23T06:10:15.712Z,69.50
2022-12-23T06:12:50.600Z,69.40
2022-12-23T06:15:25.468Z,69.50
2022-12-23T06:18:00.349Z,70.30
2022-12-23T06:20:35.303Z,69.80
2022-12-23T06:23:10.187Z,68.80
2022-12-23T06:25:45.135Z,68.60
2022-12-23T06:28:19.969Z,68.50
2022-12-23T06:30:56.251Z,68.30
2022-12-23T06:33:31.075Z,69.70
2022-12-23T06:36:07.382Z,71.20
2022-12-23T06:38:42.223Z,71.40
2022-12-23T06:41:17.159Z,71.70
2022-12-23T06:43:54.441Z,72.20
2022-12-23T06:46:29.708Z,71.70
2022-12-23T06:49:10.900Z,71.80
2022-12-23T06:51:47.808Z,72.00
2022-12-23T06:54:22.712Z,72.20
2022-12-23T06:56:57.680Z,71.80
2022-12-23T06:59:32.700Z,72.20
2022-12-23T07:02:11.294Z,70.30
2022-12-23T07:04:46.429Z,72.80
2022-12-23T07:07:21.406Z,73.00
2022-12-23T07:09:56.276Z,73.10
2022-12-23T07:12:31.299Z,72.90
2022-12-23T07:15:07.400Z,73.00
2022-12-23T07:17:42.686Z,72.90
2022-12-23T07:20:17.834Z,73.30
2022-12-23T07:22:55.615Z,73.00
2022-12-23T07:25:30.499Z,73.10
2022-12-23T07:28:05.540Z,73.40
2022-12-23T07:30:40.483Z,73.40
2022-12-23T07:33:15.476Z,74.00
2022-12-23T07:35:50.564Z,74.40
2022-12-23T07:38:25.835Z,73.90
2022-12-23T07:41:00.809Z,75.50
2022-12-23T07:43:35.723Z,75.70
2022-12-23T07:46:10.853Z,75.70
2022-12-23T07:48:45.940Z,75.80
2022-12-23T07:51:20.896Z,75.80
2022-12-23T07:53:55.813Z,76.00
2022-12-23T07:56:30.722Z,76.10
2022-12-23T07:59:05.706Z,76.10
2022-12-23T08:01:40.681Z,76.10
2022-12-23T08:04:15.584Z,76.10
2022-12-23T08:06:50.593Z,76.20
2022-12-23T08:09:25.552Z,76.20
2022-12-23T08:12:00.585Z,76.40
2022-12-23T08:14:35.556Z,76.50
2022-12-23T08:17:10.482Z,76.40
2022-12-23T08:19:45.448Z,76.20
2022-12-23T08:22:20.333Z,76.00
2022-12-23T08:24:55.181Z,77.10
2022-12-23T08:27:30.247Z,75.70
2022-12-23T08:30:06.196Z,75.50
2022-12-23T08:32:43.515Z,74.90
2022-12-23T08:35:18.435Z,72.90
2022-12-23T08:37:53.346Z,71.50
2022-12-23T08:40:28.497Z,69.80
2022-12-23T08:43:03.379Z,65.10
2022-12-23T08:45:39.147Z,63.90
2022-12-23T08:48:14.631Z,63.70
2022-12-23T08:50:50.357Z,64.90
2022-12-23T08:53:25.282Z,65.50
2022-12-23T08:56:16.794Z,66.00
2022-12-23T08:58:53.690Z,66.20
2022-12-23T09:01:31.582Z,66.30
2022-12-23T09:04:08.940Z,65.70
2022-12-23T09:06:45.339Z,65.30
2022-12-23T09:09:20.269Z,64.30
2022-12-23T09:11:55.179Z,64.80
2022-12-23T09:14:30.181Z,64.50
2022-12-23T09:17:05.167Z,64.30
2022-12-23T09:19:40.135Z,64.30
2022-12-23T09:22:15.115Z,64.10
2022-12-23T09:24:50.096Z,64.30
2022-12-23T09:27:24.962Z,65.60
2022-12-23T09:29:59.924Z,65.20
2022-12-23T09:32:34.876Z,65.10
2022-12-23T09:35:10.100Z,65.00
2022-12-23T09:37:45.052Z,65.20
2022-12-23T09:40:21.425Z,64.70
2022-12-23T09:43:28.929Z,64.80
2022-12-23T09:46:22.912Z,65.70
2022-12-23T09:49:05.382Z,65.00
2022-12-23T09:51:40.379Z,65.20
2022-12-23T09:54:38.146Z,65.30
2022-12-23T09:57:15.716Z,65.40
2022-12-23T10:00:16.933Z,65.30
2022-12-23T10:03:16.683Z,65.00
2022-12-23T10:06:05.452Z,65.40
2022-12-23T10:08:51.580Z,65.20
2022-12-23T10:11:41.570Z,65.30
2022-12-23T10:14:23.170Z,65.50
2022-12-23T10:17:11.057Z,65.50
2022-12-23T10:19:48.186Z,68.10
2022-12-23T10:22:43.389Z,66.00
2022-12-23T10:25:30.107Z,66.70
2022-12-23T10:28:05.108Z,67.10
2022-12-23T10:31:16.811Z,67.30
2022-12-23T10:33:56.170Z,67.20
2022-12-23T10:37:08.910Z,66.40
2022-12-23T10:40:24.038Z,66.60
2022-12-23T10:43:43.476Z,66.20
2022-12-23T10:46:46.938Z,66.40
2022-12-23T10:50:09.856Z,66.30
2022-12-23T10:52:46.781Z,66.20
2022-12-23T10:55:34.048Z,65.70
2022-12-23T10:58:18.221Z,65.50
2022-12-23T11:00:57.415Z,65.30
2022-12-23T11:03:54.620Z,65.10
2022-12-23T11:06:37.139Z,65.00
2022-12-23T11:09:22.060Z,64.70
2022-12-23T11:12:03.945Z,64.40
2022-12-23T11:14:57.689Z,63.70
2022-12-23T11:17:34.442Z,63.90
2022-12-23T11:20:19.061Z,63.90
2022-12-23T11:23:01.995Z,64.20
2022-12-23T11:25:42.782Z,64.50
2022-12-23T11:28:22.107Z,65.90
2022-12-23T11:31:11.623Z,65.10
2022-12-23T11:33:59.270Z,65.30
2022-12-23T11:36:35.077Z,66.00
2022-12-23T11:39:09.855Z,66.60
2022-12-23T11:41:48.625Z,67.50
2022-12-23T11:44:44.638Z,67.30
2022-12-23T11:47:22.681Z,67.50
2022-12-23T11:50:01.569Z,67.60
2022-12-23T11:52:36.432Z,67.70
2022-12-23T11:55:34.494Z,67.60
2022-12-23T11:58:20.104Z,67.70
2022-12-23T12:00:59.487Z,67.90
2022-12-23T12:03:47.427Z,67.90
2022-12-23T12:06:23.277Z,68.00
2022-12-23T12:09:00.487Z,68.00
2022-12-23T12:11:44.416Z,67.70
2022-12-23T12:14:32.501Z,67.70
2022-12-23T12:17:19.578Z,68.00
2022-12-23T12:20:48.994Z,68.40
2022-12-23T12:23:41.774Z,69.20
2022-12-23T12:26:29.891Z,69.10
2022-12-23T12:29:41.828Z,69.30
2022-12-23T12:32:40.883Z,69.60
2022-12-23T12:35:27.276Z,69.60
2022-12-23T12:38:26.233Z,69.60
2022-12-23T12:41:11.409Z,69.50
2022-12-23T12:44:04.015Z,69.50
2022-12-23T12:46:52.341Z,69.80
2022-12-23T12:49:43.672Z,69.90
2022-12-23T12:52:25.934Z,70.60
2022-12-23T12:55:29.458Z,70.00
2022-12-23T12:58:04.901Z,70.10
2022-12-23T13:01:05.586Z,70.50
2022-12-23T13:04:27.320Z,70.60
2022-12-23T13:07:50.769Z,70.80
2022-12-23T13:10:33.629Z,70.70
2022-12-23T13:13:35.582Z,71.40
2022-12-23T13:16:22.648Z,71.50
2022-12-23T13:19:29.742Z,71.70
2022-12-23T13:22:11.850Z,71.80
2022-12-23T13:25:07.881Z,72.20
2022-12-23T13:28:12.828Z,72.30
2022-12-23T13:31:15.854Z,72.20
2022-12-23T13:34:18.432Z,72.50
2022-12-23T13:37:55.300Z,71.90
2022-12-23T13:40:41.090Z,72.70
2022-12-23T13:43:22.087Z,71.80
2022-12-23T13:45:59.843Z,71.70
2022-12-23T13:48:51.068Z,71.80
2022-12-23T13:51:52.849Z,72.20
2022-12-23T13:55:06.556Z,71.30
2022-12-23T13:58:11.919Z,70.30
2022-12-23T14:00:46.874Z,70.30
2022-12-23T14:03:26.310Z,70.00
2022-12-23T14:06:40.597Z,69.60
2022-12-23T14:09:16.931Z,69.30
2022-12-23T14:11:53.034Z,69.70
2022-12-23T14:14:28.270Z,71.10
2022-12-23T14:17:16.252Z,71.50
2022-12-23T14:20:15.579Z,71.60
2022-12-23T14:23:22.546Z,71.80
2022-12-23T14:26:56.526Z,72.10
2022-12-23T14:30:26.195Z,72.90
2022-12-23T14:33:27.404Z,73.70
2022-12-23T14:36:26.772Z,73.90
2022-12-23T14:39:13.794Z,74.10
2022-12-23T14:41:54.527Z,74.30
2022-12-23T14:44:36.536Z,74.20
2022-12-23T14:47:35.441Z,74.00
2022-12-23T14:50:32.456Z,75.00
2022-12-23T14:53:22.475Z,75.20
2022-12-23T14:56:09.822Z,75.00
2022-12-23T14:59:23.745Z,75.30
2022-12-23T15:02:03.984Z,75.00
2022-12-23T15:04:55.112Z,75.60
2022-12-23T15:07:34.508Z,75.30
2022-12-23T15:10:17.911Z,75.90
2022-12-23T15:12:58.162Z,77.10
2022-12-23T15:15:33.968Z,77.00
2022-12-23T15:18:13.372Z,77.40
2022-12-23T15:21:13.076Z,77.80
2022-12-23T15:23:50.210Z,77.60
2022-12-23T15:26:30.213Z,77.60
2022-12-23T15:29:07.621Z,77.00
2022-12-23T15:31:47.793Z,76.90
2022-12-23T15:34:31.118Z,77.40
2022-12-23T15:37:17.249Z,77.60
2022-12-23T15:40:02.087Z,77.20
2022-12-23T15:42:48.797Z,77.40
2022-12-23T15:45:23.654Z,77.70
2022-12-23T15:47:58.740Z,77.50
2022-12-23T15:50:42.270Z,77.70
2022-12-23T15:53:19.086Z,77.60
2022-12-23T15:55:53.979Z,77.40
2022-12-23T15:58:32.926Z,77.80
2022-12-23T16:01:15.082Z,78.00
2022-12-23T16:03:59.482Z,77.60
2022-12-23T16:06:36.307Z,76.40
2022-12-23T16:09:17.768Z,76.10
2022-12-23T16:12:23.321Z,76.10
2022-12-23T16:15:03.226Z,75.30
2022-12-23T16:17:38.124Z,74.70
2022-12-23T16:20:19.354Z,75.00
2022-12-23T16:22:58.504Z,75.00
2022-12-23T16:25:33.735Z,74.80
2022-12-23T16:28:18.087Z,74.60
2022-12-23T16:30:58.407Z,74.40
2022-12-23T16:33:44.565Z,73.70
2022-12-23T16:36:28.442Z,73.50
2022-12-23T16:39:06.495Z,73.20
2022-12-23T16:41:41.507Z,72.80
2022-12-23T16:44:16.721Z,72.40
2022-12-23T16:46:52.341Z,72.50
2022-12-23T16:49:33.365Z,72.00
2022-12-23T16:52:14.152Z,72.30
2022-12-23T16:54:49.110Z,71.90
2022-12-23T16:57:24.019Z,72.00
2022-12-23T16:59:58.955Z,72.40
2022-12-23T17:02:34.607Z,72.40
2022-12-23T17:05:17.414Z,71.80
2022-12-23T17:07:52.635Z,71.60
2022-12-23T17:10:27.719Z,71.40
2022-12-23T17:13:02.640Z,71.10
2022-12-23T17:15:37.589Z,70.50
2022-12-23T17:18:15.594Z,70.40
2022-12-23T17:20:50.649Z,70.50
2022-12-23T17:23:31.280Z,70.00
2022-12-23T17:26:06.316Z,70.90
2022-12-23T17:28:42.107Z,70.80
2022-12-23T17:31:26.288Z,71.90
2022-12-23T17:34:03.596Z,72.40
2022-12-23T17:36:41.985Z,72.00
2022-12-23T17:39:22.022Z,71.30
2022-12-23T17:41:56.945Z,70.90
2022-12-23T17:44:31.877Z,70.30
2022-12-23T17:47:15.747Z,69.70
2022-12-23T17:49:50.792Z,69.20
2022-12-23T17:52:25.991Z,68.50
2022-12-23T17:55:00.914Z,67.60
2022-12-23T17:57:36.016Z,67.30
2022-12-23T18:00:13.228Z,67.90
2022-12-23T18:02:48.268Z,69.40
2022-12-23T18:05:31.397Z,70.70
2022-12-23T18:08:06.291Z,71.20
2022-12-23T18:10:41.251Z,71.30
2022-12-23T18:13:19.535Z,72.90
2022-12-23T18:15:54.468Z,71.80
2022-12-23T18:18:41.772Z,74.80
2022-12-23T18:21:28.547Z,82.30
2022-12-23T18:24:04.474Z,84.20
2022-12-23T18:26:39.375Z,86.50
2022-12-23T18:29:14.249Z,88.40
2022-12-23T18:31:52.085Z,88.40
2022-12-23T18:34:27.830Z,89.50
2022-12-23T18:37:02.792Z,90.50
2022-12-23T18:39:37.739Z,90.70
2022-12-23T18:42:20.100Z,90.80
2022-12-23T18:44:55.032Z,91.00
2022-12-23T18:47:31.576Z,90.90
2022-12-23T18:50:07.239Z,90.50
2022-12-23T18:52:42.221Z,90.30
2022-12-23T18:55:17.560Z,90.10
2022-12-23T18:57:52.934Z,89.70
2022-12-23T19:00:30.821Z,90.10
2022-12-23T19:03:05.816Z,89.80
2022-12-23T19:05:40.687Z,89.50
2022-12-23T19:08:19.022Z,88.90
2022-12-23T19:10:58.705Z,89.10
2022-12-23T19:13:33.908Z,88.60
2022-12-23T19:16:19.865Z,88.10
2022-12-23T19:18:55.307Z,87.80
2022-12-23T19:21:30.235Z,87.70
2022-12-23T19:24:05.227Z,87.80
2022-12-23T19:26:40.158Z,88.60
2022-12-23T19:29:15.171Z,88.90
2022-12-23T19:31:50.137Z,89.10
2022-12-23T19:34:25.453Z,89.10
2022-12-23T19:37:00.376Z,89.40
2022-12-23T19:39:35.268Z,89.00
2022-12-23T19:42:11.518Z,89.20
2022-12-23T19:44:46.445Z,89.10
2022-12-23T19:47:21.620Z,89.10
2022-12-23T19:49:56.584Z,89.40
2022-12-23T19:52:31.471Z,89.60
2022-12-23T19:55:06.849Z,89.70
2022-12-23T19:57:42.935Z,89.60
2022-12-23T20:00:18.046Z,89.40
2022-12-23T20:02:58.765Z,89.10
2022-12-23T20:05:34.140Z,88.80
2022-12-23T20:08:09.090Z,87.90
2022-12-23T20:10:44.320Z,87.40
2022-12-23T20:13:19.268Z,86.60
2022-12-23T20:15:54.391Z,86.70
2022-12-23T20:18:29.579Z,85.60
2022-12-23T20:21:05.026Z,85.00
2022-12-23T20:23:40.144Z,84.40
2022-12-23T20:26:17.705Z,84.60
2022-12-23T20:28:52.703Z,83.70
2022-12-23T20:31:33.796Z,83.30
2022-12-23T20:34:15.350Z,80.10
2022-12-23T20:36:50.335Z,79.10
2022-12-23T20:39:25.305Z,78.00
2022-12-23T20:42:00.228Z,77.70
2022-12-23T20:44:37.099Z,75.10
2022-12-23T20:47:12.567Z,72.00
2022-12-23T20:49:47.498Z,69.30
2022-12-23T20:52:22.380Z,70.20
2022-12-23T20:54:57.576Z,68.30
2022-12-23T20:57:32.666Z,65.70
2022-12-23T21:00:08.874Z,67.50
2022-12-23T21:02:43.861Z,66.10
2022-12-23T21:05:18.820Z,66.00
2022-12-23T21:07:53.748Z,65.30
2022-12-23T21:10:28.671Z,65.70
2022-12-23T21:13:04.168Z,65.30
2022-12-23T21:15:39.156Z,63.90
2022-12-23T21:18:14.160Z,63.90
2022-12-23T21:20:49.049Z,64.70
2022-12-23T21:23:24.050Z,64.90
2022-12-23T21:26:18.667Z,64.70
2022-12-23T21:28:59.108Z,62.90
2022-12-23T21:31:37.932Z,63.30
2022-12-23T21:34:14.454Z,58.40
2022-12-23T21:36:49.459Z,56.20
2022-12-23T21:39:24.519Z,57.90
2022-12-23T21:41:59.384Z,58.60
2022-12-23T21:44:34.320Z,57.00
2022-12-23T21:47:09.260Z,56.50
2022-12-23T21:49:44.229Z,56.30
2022-12-23T21:52:19.084Z,55.30
2022-12-23T21:54:54.178Z,54.90
2022-12-23T21:57:29.011Z,54.30
2022-12-23T22:00:04.508Z,52.10
2022-12-23T22:02:40.337Z,54.20
2022-12-23T22:05:15.359Z,53.70
2022-12-23T22:07:50.225Z,52.30
2022-12-23T22:10:25.206Z,51.40
2022-12-23T22:13:00.127Z,49.40
2022-12-23T22:15:40.271Z,49.90
2022-12-23T22:18:15.144Z,49.10
2022-12-23T22:20:50.084Z,48.80
2022-12-23T22:23:24.952Z,47.60
2022-12-23T22:26:00.025Z,47.30
2022-12-23T22:28:37.066Z,47.20
2022-12-23T22:31:20.407Z,47.20
2022-12-23T22:33:55.542Z,46.60
2022-12-23T22:36:30.918Z,46.70
2022-12-23T22:39:07.575Z,47.00
2022-12-23T22:41:42.962Z,47.90
2022-12-23T22:44:19.450Z,47.90
2022-12-23T22:46:54.506Z,47.60
2022-12-23T22:49:29.678Z,46.50
2022-12-23T22:52:04.800Z,46.90
2022-12-23T22:54:39.776Z,46.70
2022-12-23T22:57:14.641Z,47.20
2022-12-23T22:59:49.514Z,47.10
2022-12-23T23:02:25.512Z,46.90
2022-12-23T23:05:00.488Z,46.90
2022-12-23T23:07:35.535Z,46.30
2022-12-23T23:10:10.949Z,45.10
2022-12-23T23:12:47.393Z,44.80
2022-12-23T23:15:22.266Z,45.20
2022-12-23T23:17:57.146Z,44.70
2022-12-23T23:20:32.152Z,44.40
2022-12-23T23:23:07.040Z,44.60
2022-12-23T23:25:42.522Z,44.10
2022-12-23T23:28:17.771Z,44.60
2022-12-23T23:31:03.807Z,44.30
2022-12-23T23:33:47.428Z,44.00
2022-12-23T23:36:22.309Z,44.30
2022-12-23T23:38:57.296Z,44.10
2022-12-23T23:41:32.235Z,44.10
2022-12-23T23:44:07.118Z,43.90
2022-12-23T23:46:42.031Z,43.90
2022-12-23T23:49:16.932Z,44.40
2022-12-23T23:51:51.989Z,44.70
2022-12-23T23:54:26.902Z,44.60
2022-12-23T23:57:01.738Z,44.20
2022-12-23T23:59:36.711Z,44.40
